sensor_id;sensor_type;location;lat;lon;timestamp;temperature;humidity
60473;DHT22;46318;52.716;6.444;2022-08-19T18:37:45;24.80;97.50
60473;DHT22;46318;52.716;6.444;2022-08-19T18:40:18;24.60;97.10
60473;DHT22;46318;52.716;6.444;2022-08-19T18:43:04;24.50;98.40
60473;DHT22;46318;52.716;6.444;2022-08-19T18:45:50;24.40;98.10
60473;DHT22;46318;52.716;6.444;2022-08-19T18:48:35;24.40;98.20
60473;DHT22;46318;52.716;6.444;2022-08-19T18:51:21;24.30;98.00
60473;DHT22;46318;52.716;6.444;2022-08-19T18:53:47;24.20;98.70
60473;DHT22;46318;52.716;6.444;2022-08-19T18:56:17;24.10;99.10
60473;DHT22;46318;52.716;6.444;2022-08-19T18:58:44;24.10;99.00
60473;DHT22;46318;52.716;6.444;2022-08-19T19:01:14;24.00;99.20
60473;DHT22;46318;52.716;6.444;2022-08-19T19:03:42;24.00;99.50
60473;DHT22;46318;52.716;6.444;2022-08-19T19:06:20;23.90;99.90
60473;DHT22;46318;52.716;6.444;2022-08-19T19:08:52;23.90;99.40
60473;DHT22;46318;52.716;6.444;2022-08-19T19:11:28;23.80;99.40
60473;DHT22;46318;52.716;6.444;2022-08-19T19:13:57;23.80;99.60
60473;DHT22;46318;52.716;6.444;2022-08-19T19:16:26;23.70;99.50
60473;DHT22;46318;52.716;6.444;2022-08-19T19:18:53;23.70;99.90
60473;DHT22;46318;52.716;6.444;2022-08-19T19:21:21;23.60;99.90
60473;DHT22;46318;52.716;6.444;2022-08-19T19:23:48;23.60;99.90
60473;DHT22;46318;52.716;6.444;2022-08-19T19:26:15;23.60;99.90
60473;DHT22;46318;52.716;6.444;2022-08-19T19:28:42;23.50;99.90
60473;DHT22;46318;52.716;6.444;2022-08-19T19:31:14;23.50;99.90
60473;DHT22;46318;52.716;6.444;2022-08-19T19:33:41;23.40;99.90
60473;DHT22;46318;52.716;6.444;2022-08-19T19:36:08;23.40;99.90
60473;DHT22;46318;52.716;6.444;2022-08-19T19:38:34;23.40;99.90
60473;DHT22;46318;52.716;6.444;2022-08-19T19:41:00;23.30;99.90
60473;DHT22;46318;52.716;6.444;2022-08-19T19:43:26;23.20;99.90
60473;DHT22;46318;52.716;6.444;2022-08-19T19:45:53;23.20;99.90
60473;DHT22;46318;52.716;6.444;2022-08-19T19:48:22;23.10;99.90
60473;DHT22;46318;52.716;6.444;2022-08-19T19:50:49;23.00;99.90
60473;DHT22;46318;52.716;6.444;2022-08-19T19:53:15;23.00;99.90
60473;DHT22;46318;52.716;6.444;2022-08-19T19:55:41;23.00;99.90
60473;DHT22;46318;52.716;6.444;2022-08-19T19:58:07;23.00;99.90
60473;DHT22;46318;52.716;6.444;2022-08-19T20:00:33;22.90;99.90
60473;DHT22;46318;52.716;6.444;2022-08-19T20:03:00;22.90;99.90
60473;DHT22;46318;52.716;6.444;2022-08-19T20:05:26;22.90;99.90
60473;DHT22;46318;52.716;6.444;2022-08-19T20:07:53;22.80;99.90
60473;DHT22;46318;52.716;6.444;2022-08-19T20:10:39;22.80;99.90
60473;DHT22;46318;52.716;6.444;2022-08-19T20:13:08;22.80;99.90
60473;DHT22;46318;52.716;6.444;2022-08-19T20:15:35;22.70;99.90
60473;DHT22;46318;52.716;6.444;2022-08-19T20:18:01;22.70;99.90
60473;DHT22;46318;52.716;6.444;2022-08-19T20:20:29;22.70;99.90
60473;DHT22;46318;52.716;6.444;2022-08-19T20:22:56;22.70;99.90
60473;DHT22;46318;52.716;6.444;2022-08-19T20:25:23;22.60;99.90
60473;DHT22;46318;52.716;6.444;2022-08-19T20:27:49;22.50;99.90
60473;DHT22;46318;52.716;6.444;2022-08-19T20:30:17;22.50;99.90
60473;DHT22;46318;52.716;6.444;2022-08-19T20:32:46;22.50;99.90
60473;DHT22;46318;52.716;6.444;2022-08-19T20:35:15;22.40;99.90
60473;DHT22;46318;52.716;6.444;2022-08-19T20:37:43;22.40;99.90
60473;DHT22;46318;52.716;6.444;2022-08-19T20:40:10;22.40;99.90
60473;DHT22;46318;52.716;6.444;2022-08-19T20:42:39;22.30;99.90
60473;DHT22;46318;52.716;6.444;2022-08-19T20:45:16;22.30;99.90
60473;DHT22;46318;52.716;6.444;2022-08-19T20:47:43;22.30;99.90
60473;DHT22;46318;52.716;6.444;2022-08-19T20:50:09;22.30;99.90
60473;DHT22;46318;52.716;6.444;2022-08-19T20:52:37;22.20;99.90
60473;DHT22;46318;52.716;6.444;2022-08-19T20:55:04;22.20;99.90
60473;DHT22;46318;52.716;6.444;2022-08-19T20:57:30;22.20;99.90
60473;DHT22;46318;52.716;6.444;2022-08-19T20:59:56;22.20;99.90
60473;DHT22;46318;52.716;6.444;2022-08-19T21:02:22;22.20;99.90
60473;DHT22;46318;52.716;6.444;2022-08-19T21:04:49;22.10;99.90
60473;DHT22;46318;52.716;6.444;2022-08-19T21:07:15;22.10;99.90
60473;DHT22;46318;52.716;6.444;2022-08-19T21:09:42;22.00;99.90
60473;DHT22;46318;52.716;6.444;2022-08-19T21:12:13;22.00;99.90
60473;DHT22;46318;52.716;6.444;2022-08-19T21:14:40;22.00;99.90
60473;DHT22;46318;52.716;6.444;2022-08-19T21:17:07;22.00;99.90
60473;DHT22;46318;52.716;6.444;2022-08-19T21:19:33;22.00;99.90
60473;DHT22;46318;52.716;6.444;2022-08-19T21:22:00;21.90;99.90
60473;DHT22;46318;52.716;6.444;2022-08-19T21:24:26;21.90;99.90
60473;DHT22;46318;52.716;6.444;2022-08-19T21:26:52;21.90;99.90
60473;DHT22;46318;52.716;6.444;2022-08-19T21:29:18;21.90;99.90
60473;DHT22;46318;52.716;6.444;2022-08-19T21:31:44;21.90;99.90
60473;DHT22;46318;52.716;6.444;2022-08-19T21:34:10;21.90;99.90
60473;DHT22;46318;52.716;6.444;2022-08-19T21:36:36;21.90;99.90
60473;DHT22;46318;52.716;6.444;2022-08-19T21:39:02;21.80;99.90
60473;DHT22;46318;52.716;6.444;2022-08-19T21:41:28;21.80;99.90
60473;DHT22;46318;52.716;6.444;2022-08-19T21:43:54;21.80;99.90
60473;DHT22;46318;52.716;6.444;2022-08-19T21:46:21;21.70;99.90
60473;DHT22;46318;52.716;6.444;2022-08-19T21:48:47;21.70;99.90
60473;DHT22;46318;52.716;6.444;2022-08-19T21:51:13;21.60;99.90
60473;DHT22;46318;52.716;6.444;2022-08-19T21:53:39;21.60;99.90
60473;DHT22;46318;52.716;6.444;2022-08-19T21:56:05;21.60;99.90
60473;DHT22;46318;52.716;6.444;2022-08-19T21:58:32;21.60;99.90
60473;DHT22;46318;52.716;6.444;2022-08-19T22:00:59;21.50;99.90
60473;DHT22;46318;52.716;6.444;2022-08-19T22:03:29;21.50;99.90
60473;DHT22;46318;52.716;6.444;2022-08-19T22:05:55;21.40;99.90
60473;DHT22;46318;52.716;6.444;2022-08-19T22:08:23;21.40;99.90
60473;DHT22;46318;52.716;6.444;2022-08-19T22:10:50;21.40;99.90
60473;DHT22;46318;52.716;6.444;2022-08-19T22:13:17;21.30;99.90
60473;DHT22;46318;52.716;6.444;2022-08-19T22:15:43;21.30;99.90
60473;DHT22;46318;52.716;6.444;2022-08-19T22:18:10;21.30;99.90
60473;DHT22;46318;52.716;6.444;2022-08-19T22:20:38;21.20;99.90
60473;DHT22;46318;52.716;6.444;2022-08-19T22:23:05;21.20;99.90
60473;DHT22;46318;52.716;6.444;2022-08-19T22:25:37;21.20;99.90
60473;DHT22;46318;52.716;6.444;2022-08-19T22:28:08;21.20;99.90
60473;DHT22;46318;52.716;6.444;2022-08-19T22:30:36;21.10;99.90
60473;DHT22;46318;52.716;6.444;2022-08-19T22:33:05;21.10;99.90
60473;DHT22;46318;52.716;6.444;2022-08-19T22:35:36;21.10;99.90
60473;DHT22;46318;52.716;6.444;2022-08-19T22:38:04;21.10;99.90
60473;DHT22;46318;52.716;6.444;2022-08-19T22:40:34;21.00;99.90
60473;DHT22;46318;52.716;6.444;2022-08-19T22:43:07;21.00;99.90
60473;DHT22;46318;52.716;6.444;2022-08-19T22:45:40;21.00;99.90
60473;DHT22;46318;52.716;6.444;2022-08-19T22:48:08;20.90;99.90
60473;DHT22;46318;52.716;6.444;2022-08-19T22:50:37;20.90;99.90
60473;DHT22;46318;52.716;6.444;2022-08-19T22:53:05;20.90;99.90
60473;DHT22;46318;52.716;6.444;2022-08-19T22:55:33;20.90;99.90
60473;DHT22;46318;52.716;6.444;2022-08-19T22:58:00;20.80;99.90
60473;DHT22;46318;52.716;6.444;2022-08-19T23:00:27;20.80;99.90
60473;DHT22;46318;52.716;6.444;2022-08-19T23:02:54;20.80;99.90
60473;DHT22;46318;52.716;6.444;2022-08-19T23:05:23;20.70;99.90
60473;DHT22;46318;52.716;6.444;2022-08-19T23:07:51;20.70;99.90
60473;DHT22;46318;52.716;6.444;2022-08-19T23:10:17;20.70;99.90
60473;DHT22;46318;52.716;6.444;2022-08-19T23:12:47;20.60;99.90
60473;DHT22;46318;52.716;6.444;2022-08-19T23:15:17;20.60;99.90
60473;DHT22;46318;52.716;6.444;2022-08-19T23:17:51;20.60;99.90
60473;DHT22;46318;52.716;6.444;2022-08-19T23:20:19;20.60;99.90
60473;DHT22;46318;52.716;6.444;2022-08-19T23:22:46;20.50;99.90
60473;DHT22;46318;52.716;6.444;2022-08-19T23:25:18;20.50;99.90
60473;DHT22;46318;52.716;6.444;2022-08-19T23:27:46;20.40;99.90
60473;DHT22;46318;52.716;6.444;2022-08-19T23:30:34;20.40;99.90
60473;DHT22;46318;52.716;6.444;2022-08-19T23:33:04;20.40;99.90
60473;DHT22;46318;52.716;6.444;2022-08-19T23:35:36;20.30;99.90
60473;DHT22;46318;52.716;6.444;2022-08-19T23:38:03;20.30;99.90
60473;DHT22;46318;52.716;6.444;2022-08-19T23:40:30;20.30;99.90
60473;DHT22;46318;52.716;6.444;2022-08-19T23:42:56;20.20;99.90
60473;DHT22;46318;52.716;6.444;2022-08-19T23:45:25;20.20;99.90
60473;DHT22;46318;52.716;6.444;2022-08-19T23:47:52;20.20;99.90
60473;DHT22;46318;52.716;6.444;2022-08-19T23:50:18;20.20;99.90
60473;DHT22;46318;52.716;6.444;2022-08-19T23:52:50;20.10;99.90
60473;DHT22;46318;52.716;6.444;2022-08-19T23:55:31;20.10;99.90
60473;DHT22;46318;52.716;6.444;2022-08-19T23:57:59;20.10;99.90
